createdAt,value
2022-12-25T00:00:08.156Z,99441.50
2022-12-25T00:01:19.782Z,99445.50
2022-12-25T00:02:21.948Z,99446.16
2022-12-25T00:03:23.759Z,99438.34
2022-12-25T00:04:25.381Z,99440.00
2022-12-25T00:05:27.502Z,99449.50
2022-12-25T00:06:29.058Z,99444.22
2022-12-25T00:07:32.474Z,99444.75
2022-12-25T00:08:34.784Z,99440.38
2022-12-25T00:09:37.078Z,99451.56
2022-12-25T00:10:44.946Z,99456.56
2022-12-25T00:11:48.025Z,99454.50
2022-12-25T00:12:50.431Z,99457.88
2022-12-25T00:13:52.126Z,99458.69
2022-12-25T00:14:53.647Z,99458.63
2022-12-25T00:15:55.642Z,99461.78
2022-12-25T00:16:57.476Z,99468.31
2022-12-25T00:17:59.795Z,99467.59
2022-12-25T00:19:01.366Z,99470.41
2022-12-25T00:20:03.207Z,99466.84
2022-12-25T00:21:07.085Z,99467.69
2022-12-25T00:22:09.805Z,99473.66
2022-12-25T00:23:11.396Z,99470.84
2022-12-25T00:24:13.668Z,99476.72
2022-12-25T00:25:15.506Z,99473.25
2022-12-25T00:26:18.390Z,99473.19
2022-12-25T00:27:19.929Z,99474.19
2022-12-25T00:28:25.797Z,99479.13
2022-12-25T00:29:28.553Z,99481.75
2022-12-25T00:30:31.195Z,99479.06
2022-12-25T00:31:32.807Z,99479.34
2022-12-25T00:32:38.820Z,99476.06
2022-12-25T00:33:42.387Z,99475.97
2022-12-25T00:34:44.285Z,99476.72
2022-12-25T00:35:58.518Z,99474.00
2022-12-25T00:37:00.776Z,99477.25
2022-12-25T00:38:03.250Z,99490.72
2022-12-25T00:39:05.344Z,99488.31
2022-12-25T00:40:07.740Z,99486.13
2022-12-25T00:41:15.148Z,99484.66
2022-12-25T00:42:18.039Z,99488.28
2022-12-25T00:43:20.956Z,99489.97
2022-12-25T00:44:23.034Z,99491.56
2022-12-25T00:45:24.842Z,99487.94
2022-12-25T00:46:26.818Z,99486.78
2022-12-25T00:47:29.835Z,99502.47
2022-12-25T00:48:33.664Z,99493.88
2022-12-25T00:49:36.513Z,99499.03
2022-12-25T00:50:39.430Z,99488.66
2022-12-25T00:51:41.776Z,99495.56
2022-12-25T00:52:43.501Z,99506.66
2022-12-25T00:53:46.168Z,99498.63
2022-12-25T00:54:48.814Z,99505.31
2022-12-25T00:55:58.718Z,99505.91
2022-12-25T00:57:00.610Z,99503.94
2022-12-25T00:58:02.225Z,99505.41
2022-12-25T00:59:04.079Z,99501.88
2022-12-25T01:00:06.915Z,99500.00
2022-12-25T01:01:10.832Z,99516.41
2022-12-25T01:02:12.831Z,99527.03
2022-12-25T01:03:14.933Z,99521.94
2022-12-25T01:04:16.790Z,99515.88
2022-12-25T01:05:18.602Z,99515.88
2022-12-25T01:06:20.902Z,99513.25
2022-12-25T01:07:24.503Z,99515.13
2022-12-25T01:08:27.404Z,99504.88
2022-12-25T01:09:29.509Z,99506.09
2022-12-25T01:10:32.236Z,99508.69
2022-12-25T01:11:34.181Z,99507.97
2022-12-25T01:12:39.960Z,99514.03
2022-12-25T01:13:41.800Z,99514.84
2022-12-25T01:14:43.588Z,99516.53
2022-12-25T01:15:45.131Z,99514.69
2022-12-25T01:16:46.890Z,99514.78
2022-12-25T01:17:49.169Z,99515.63
2022-12-25T01:18:51.338Z,99515.50
2022-12-25T01:19:53.271Z,99516.34
2022-12-25T01:20:54.889Z,99512.91
2022-12-25T01:21:56.499Z,99517.28
2022-12-25T01:22:58.644Z,99519.06
2022-12-25T01:24:00.839Z,99524.34
2022-12-25T01:25:02.725Z,99515.78
2022-12-25T01:26:09.881Z,99523.63
2022-12-25T01:27:12.110Z,99526.22
2022-12-25T01:28:14.521Z,99528.00
2022-12-25T01:29:16.224Z,99538.72
2022-12-25T01:30:17.892Z,99532.38
2022-12-25T01:31:21.667Z,99538.00
2022-12-25T01:32:23.760Z,99535.66
2022-12-25T01:33:25.710Z,99533.13
2022-12-25T01:34:27.639Z,99534.53
2022-12-25T01:35:29.358Z,99541.06
2022-12-25T01:36:31.021Z,99548.59
2022-12-25T01:37:32.639Z,99534.63
2022-12-25T01:38:34.183Z,99543.09
2022-12-25T01:39:35.731Z,99536.84
2022-12-25T01:40:39.900Z,99538.34
2022-12-25T01:41:41.836Z,99544.34
2022-12-25T01:42:44.557Z,99546.09
2022-12-25T01:44:24.919Z,99546.75
2022-12-25T01:45:40.396Z,99539.66
2022-12-25T01:46:43.656Z,99539.56
2022-12-25T01:47:45.821Z,99543.94
2022-12-25T01:48:47.753Z,99544.03
2022-12-25T01:49:51.488Z,99528.38
2022-12-25T01:51:00.517Z,99530.97
2022-12-25T01:52:12.515Z,99538.19
2022-12-25T01:53:14.548Z,99544.50
2022-12-25T01:54:19.920Z,99539.00
2022-12-25T01:55:22.379Z,99540.59
2022-12-25T01:56:27.315Z,99536.97
2022-12-25T01:57:33.132Z,99540.41
2022-12-25T01:58:35.704Z,99541.34
2022-12-25T01:59:40.318Z,99535.28
2022-12-25T02:00:42.059Z,99539.75
2022-12-25T02:01:44.629Z,99538.81
2022-12-25T02:02:46.923Z,99539.47
2022-12-25T02:03:48.796Z,99541.41
2022-12-25T02:05:01.914Z,99546.47
2022-12-25T02:06:04.574Z,99555.97
2022-12-25T02:07:18.813Z,99559.53
2022-12-25T02:08:22.139Z,99556.91
2022-12-25T02:09:24.270Z,99561.19
2022-12-25T02:10:25.873Z,99562.88
2022-12-25T02:11:28.560Z,99562.88
2022-12-25T02:12:34.160Z,99558.66
2022-12-25T02:13:36.537Z,99563.81
2022-12-25T02:14:38.181Z,99555.97
2022-12-25T02:16:20.003Z,99559.41
2022-12-25T02:18:07.802Z,99555.25
2022-12-25T02:19:38.880Z,99555.13
2022-12-25T02:20:58.290Z,99555.97
2022-12-25T02:22:14.506Z,99553.44
2022-12-25T02:23:53.687Z,99553.44
2022-12-25T02:25:24.603Z,99554.31
2022-12-25T02:26:41.612Z,99548.44
2022-12-25T02:28:04.603Z,99559.06
2022-12-25T02:29:37.856Z,99557.53
2022-12-25T02:30:46.642Z,99557.53
2022-12-25T02:32:01.033Z,99566.50
2022-12-25T02:33:12.988Z,99560.44
2022-12-25T02:34:42.318Z,99552.44
2022-12-25T02:35:51.077Z,99545.53
2022-12-25T02:37:12.880Z,99547.31
2022-12-25T02:38:22.365Z,99548.16
2022-12-25T02:39:51.288Z,99555.69
2022-12-25T02:40:59.071Z,99562.69
2022-12-25T02:42:03.800Z,99565.09
2022-12-25T02:43:11.889Z,99563.34
2022-12-25T02:44:19.550Z,99570.25
2022-12-25T02:45:53.905Z,99566.88
2022-12-25T02:46:56.959Z,99565.38
2022-12-25T02:47:59.038Z,99566.69
2022-12-25T02:49:10.963Z,99559.50
2022-12-25T02:50:14.999Z,99563.78
2022-12-25T02:51:20.805Z,99564.34
2022-12-25T02:52:24.993Z,99564.16
2022-12-25T02:53:27.428Z,99569.31
2022-12-25T02:54:38.596Z,99569.97
2022-12-25T02:55:44.646Z,99568.09
2022-12-25T02:56:49.720Z,99571.72
2022-12-25T02:57:54.625Z,99562.88
2022-12-25T02:58:56.734Z,99561.09
2022-12-25T03:00:01.263Z,99561.19
2022-12-25T03:01:12.104Z,99560.44
2022-12-25T03:02:16.982Z,99563.41
2022-12-25T03:03:21.341Z,99561.75
2022-12-25T03:04:25.968Z,99559.94
2022-12-25T03:05:30.516Z,99564.22
2022-12-25T03:06:34.665Z,99566.69
2022-12-25T03:07:40.016Z,99564.72
2022-12-25T03:08:44.960Z,99566.31
2022-12-25T03:09:56.701Z,99559.31
2022-12-25T03:11:07.152Z,99566.13
2022-12-25T03:12:18.745Z,99565.09
2022-12-25T03:13:26.916Z,99566.03
2022-12-25T03:14:29.163Z,99559.59
2022-12-25T03:15:32.844Z,99570.13
2022-12-25T03:16:34.718Z,99564.91
2022-12-25T03:17:36.862Z,99563.41
2022-12-25T03:18:38.668Z,99570.94
2022-12-25T03:19:40.958Z,99574.34
2022-12-25T03:20:43.865Z,99578.41
2022-12-25T03:21:46.543Z,99574.59
2022-12-25T03:22:48.805Z,99578.13
2022-12-25T03:23:55.034Z,99577.53
2022-12-25T03:24:56.826Z,99577.03
2022-12-25T03:25:59.378Z,99573.59
2022-12-25T03:27:01.101Z,99570.25
2022-12-25T03:28:04.691Z,99569.31
2022-12-25T03:29:06.393Z,99578.81
2022-12-25T03:30:09.443Z,99579.66
2022-12-25T03:31:14.457Z,99578.72
2022-12-25T03:32:20.044Z,99585.78
2022-12-25T03:33:45.636Z,99587.47
2022-12-25T03:35:13.118Z,99596.13
2022-12-25T03:36:25.364Z,99584.03
2022-12-25T03:37:51.392Z,99588.22
2022-12-25T03:39:23.599Z,99583.84
2022-12-25T03:40:53.930Z,99582.44
2022-12-25T03:42:01.213Z,99578.41
2022-12-25T03:43:32.258Z,99583.44
2022-12-25T03:44:51.489Z,99592.63
2022-12-25T03:45:57.967Z,99591.13
2022-12-25T03:47:12.297Z,99595.41
2022-12-25T03:48:16.824Z,99592.97
2022-12-25T03:49:29.653Z,99586.50
2022-12-25T03:50:40.786Z,99603.47
2022-12-25T03:51:44.714Z,99596.22
2022-12-25T03:52:48.219Z,99596.34
2022-12-25T03:53:59.356Z,99592.13
2022-12-25T03:55:07.218Z,99599.75
2022-12-25T03:56:10.041Z,99603.28
2022-12-25T03:57:13.796Z,99604.91
2022-12-25T03:58:24.071Z,99607.41
2022-12-25T03:59:26.434Z,99609.13
2022-12-25T04:00:28.179Z,99621.28
2022-12-25T04:01:30.147Z,99617.75
2022-12-25T04:02:32.359Z,99623.22
2022-12-25T04:03:34.781Z,99618.84
2022-12-25T04:04:36.358Z,99621.22
2022-12-25T04:05:39.224Z,99618.03
2022-12-25T04:06:41.930Z,99621.81
2022-12-25T04:07:44.730Z,99619.94
2022-12-25T04:08:46.237Z,99620.53
2022-12-25T04:09:48.944Z,99616.75
2022-12-25T04:10:50.551Z,99619.97
2022-12-25T04:11:54.949Z,99620.72
2022-12-25T04:13:01.015Z,99620.72
2022-12-25T04:14:03.912Z,99622.22
2022-12-25T04:15:05.978Z,99623.38
2022-12-25T04:16:08.029Z,99629.03
2022-12-25T04:17:10.105Z,99627.66
2022-12-25T04:18:12.108Z,99624.28
2022-12-25T04:19:14.756Z,99630.03
2022-12-25T04:20:17.367Z,99628.81
2022-12-25T04:21:19.031Z,99635.88
2022-12-25T04:22:21.719Z,99632.25
2022-12-25T04:23:23.245Z,99627.91
2022-12-25T04:24:24.752Z,99636.41
2022-12-25T04:25:26.818Z,99629.16
2022-12-25T04:26:28.498Z,99625.47
2022-12-25T04:27:30.685Z,99626.25
2022-12-25T04:28:32.586Z,99618.44
2022-12-25T04:29:34.274Z,99629.63
2022-12-25T04:30:35.752Z,99618.50
2022-12-25T04:31:37.959Z,99618.44
2022-12-25T04:32:40.125Z,99621.81
2022-12-25T04:33:41.998Z,99625.91
2022-12-25T04:34:43.820Z,99623.31
2022-12-25T04:35:48.652Z,99625.31
2022-12-25T04:36:50.562Z,99627.00
2022-12-25T04:37:52.870Z,99620.13
2022-12-25T04:38:54.455Z,99625.22
2022-12-25T04:39:57.032Z,99619.94
2022-12-25T04:40:59.923Z,99624.47
2022-12-25T04:42:01.688Z,99631.34
2022-12-25T04:43:04.528Z,99633.13
2022-12-25T04:44:07.416Z,99641.03
2022-12-25T04:45:09.547Z,99640.03
2022-12-25T04:46:11.131Z,99637.44
2022-12-25T04:47:13.252Z,99653.06
2022-12-25T04:48:15.152Z,99647.09
2022-12-25T04:49:16.839Z,99642.63
2022-12-25T04:50:19.622Z,99641.78
2022-12-25T04:51:24.792Z,99647.97
2022-12-25T04:52:27.141Z,99645.38
2022-12-25T04:53:28.635Z,99645.09
2022-12-25T04:54:30.214Z,99645.56
2022-12-25T04:55:31.842Z,99650.06
2022-12-25T04:56:33.668Z,99648.56
2022-12-25T04:57:36.355Z,99646.66
2022-12-25T04:58:39.456Z,99650.78
2022-12-25T04:59:41.428Z,99652.44
2022-12-25T05:00:43.549Z,99649.16
2022-12-25T05:01:45.217Z,99652.63
2022-12-25T05:02:47.132Z,99655.28
2022-12-25T05:03:48.934Z,99655.13
2022-12-25T05:04:50.593Z,99657.81
2022-12-25T05:05:52.959Z,99649.84
2022-12-25T05:06:54.807Z,99654.88
2022-12-25T05:07:57.473Z,99634.97
2022-12-25T05:08:59.075Z,99642.72
2022-12-25T05:10:01.153Z,99632.31
2022-12-25T05:11:12.780Z,99638.34
2022-12-25T05:12:14.822Z,99641.00
2022-12-25T05:13:17.611Z,99645.72
2022-12-25T05:14:19.255Z,99646.22
2022-12-25T05:15:21.252Z,99650.03
2022-12-25T05:16:23.100Z,99650.44
2022-12-25T05:17:24.839Z,99652.41
2022-12-25T05:18:26.680Z,99655.09
2022-12-25T05:19:28.648Z,99658.91
2022-12-25T05:20:33.426Z,99647.81
2022-12-25T05:21:40.123Z,99646.75
2022-12-25T05:22:42.300Z,99645.75
2022-12-25T05:23:44.830Z,99647.34
2022-12-25T05:24:47.258Z,99633.22
2022-12-25T05:25:49.052Z,99642.53
2022-12-25T05:26:50.568Z,99632.81
2022-12-25T05:27:53.965Z,99634.59
2022-12-25T05:28:56.205Z,99648.59
2022-12-25T05:29:57.919Z,99640.72
2022-12-25T05:31:00.248Z,99642.22
2022-12-25T05:32:02.757Z,99643.16
2022-12-25T05:33:04.450Z,99645.44
2022-12-25T05:34:07.244Z,99650.50
2022-12-25T05:35:09.024Z,99645.75
2022-12-25T05:36:13.058Z,99649.25
2022-12-25T05:37:14.847Z,99649.03
2022-12-25T05:38:16.536Z,99650.56
2022-12-25T05:39:18.267Z,99648.06
2022-12-25T05:40:20.208Z,99656.13
2022-12-25T05:41:21.717Z,99659.84
2022-12-25T05:42:23.635Z,99667.09
2022-12-25T05:43:25.699Z,99656.56
2022-12-25T05:44:27.738Z,99660.53
2022-12-25T05:45:29.382Z,99671.16
2022-12-25T05:46:31.013Z,99677.25
2022-12-25T05:47:33.222Z,99676.47
2022-12-25T05:48:36.573Z,99685.19
2022-12-25T05:49:38.812Z,99688.56
2022-12-25T05:50:41.712Z,99681.84
2022-12-25T05:51:44.295Z,99679.22
2022-12-25T05:52:45.826Z,99689.47
2022-12-25T05:53:47.801Z,99679.19
2022-12-25T05:54:49.463Z,99675.72
2022-12-25T05:55:51.123Z,99672.34
2022-12-25T05:56:52.681Z,99675.56
2022-12-25T05:57:54.681Z,99681.31
2022-12-25T05:58:56.375Z,99681.19
2022-12-25T05:59:59.316Z,99671.72
2022-12-25T06:01:02.240Z,99669.94
2022-12-25T06:02:04.114Z,99670.72
2022-12-25T06:03:05.826Z,99672.25
2022-12-25T06:04:12.372Z,99669.78
2022-12-25T06:05:14.885Z,99681.03
2022-12-25T06:06:16.573Z,99678.06
2022-12-25T06:07:18.724Z,99675.94
2022-12-25T06:08:22.302Z,99681.16
2022-12-25T06:09:24.910Z,99684.88
2022-12-25T06:10:26.440Z,99683.00
2022-12-25T06:11:28.018Z,99683.88
2022-12-25T06:12:30.257Z,99688.09
2022-12-25T06:13:34.131Z,99682.69
2022-12-25T06:14:36.315Z,99679.91
2022-12-25T06:15:41.800Z,99679.00
2022-12-25T06:16:43.460Z,99682.41
2022-12-25T06:17:45.258Z,99685.88
2022-12-25T06:18:50.238Z,99683.66
2022-12-25T06:19:52.265Z,99685.81
2022-12-25T06:20:53.819Z,99690.19
2022-12-25T06:21:56.364Z,99686.75
2022-12-25T06:22:58.880Z,99695.41
2022-12-25T06:24:01.562Z,99692.91
2022-12-25T06:25:03.344Z,99700.59
2022-12-25T06:26:12.674Z,99694.53
2022-12-25T06:27:15.272Z,99705.81
2022-12-25T06:28:16.930Z,99697.41
2022-12-25T06:29:19.846Z,99703.09
2022-12-25T06:30:22.689Z,99702.28
2022-12-25T06:31:24.988Z,99710.34
2022-12-25T06:32:26.802Z,99704.56
2022-12-25T06:33:28.717Z,99704.25
2022-12-25T06:34:30.285Z,99708.53
2022-12-25T06:35:32.123Z,99714.50
2022-12-25T06:36:34.403Z,99727.38
2022-12-25T06:37:36.022Z,99728.28
2022-12-25T06:38:38.656Z,99727.03
2022-12-25T06:39:40.287Z,99730.69
2022-12-25T06:40:41.879Z,99726.28
2022-12-25T06:41:44.447Z,99729.69
2022-12-25T06:42:46.126Z,99733.44
2022-12-25T06:43:52.620Z,99720.38
2022-12-25T06:44:54.236Z,99727.03
2022-12-25T06:45:56.935Z,99730.25
2022-12-25T06:46:58.802Z,99722.22
2022-12-25T06:48:00.302Z,99724.63
2022-12-25T06:49:02.894Z,99733.41
2022-12-25T06:50:06.543Z,99734.63
2022-12-25T06:51:08.601Z,99738.47
2022-12-25T06:52:11.499Z,99740.66
2022-12-25T06:53:14.406Z,99747.19
2022-12-25T06:54:16.505Z,99744.81
2022-12-25T06:55:18.116Z,99752.91
2022-12-25T06:56:23.046Z,99754.66
2022-12-25T06:57:24.612Z,99747.34
2022-12-25T06:58:26.425Z,99751.38
2022-12-25T06:59:28.327Z,99748.41
2022-12-25T07:00:30.372Z,99754.38
2022-12-25T07:01:49.000Z,99751.78
2022-12-25T07:02:50.899Z,99759.97
2022-12-25T07:04:02.988Z,99758.84
2022-12-25T07:05:05.839Z,99756.88
2022-12-25T07:06:07.564Z,99762.69
2022-12-25T07:07:09.810Z,99772.03
2022-12-25T07:08:12.589Z,99774.41
2022-12-25T07:09:14.139Z,99770.84
2022-12-25T07:10:15.664Z,99776.19
2022-12-25T07:11:17.215Z,99779.38
2022-12-25T07:12:22.235Z,99775.44
2022-12-25T07:13:25.861Z,99780.78
2022-12-25T07:14:28.425Z,99776.34
2022-12-25T07:15:30.336Z,99777.13
2022-12-25T07:16:32.225Z,99778.53
2022-12-25T07:17:34.974Z,99783.94
2022-12-25T07:18:38.218Z,99777.97
2022-12-25T07:19:44.706Z,99776.09
2022-12-25T07:20:47.375Z,99780.44
2022-12-25T07:21:48.973Z,99766.41
2022-12-25T07:22:50.634Z,99772.97
2022-12-25T07:23:52.698Z,99778.59
2022-12-25T07:24:54.201Z,99776.19
2022-12-25T07:25:57.903Z,99780.81
2022-12-25T07:26:59.677Z,99770.78
2022-12-25T07:28:02.502Z,99773.09
2022-12-25T07:29:04.818Z,99780.97
2022-12-25T07:30:07.597Z,99782.44
2022-12-25T07:31:14.678Z,99776.09
2022-12-25T07:32:16.769Z,99783.81
2022-12-25T07:33:20.076Z,99777.38
2022-12-25T07:34:22.873Z,99779.66
2022-12-25T07:35:24.776Z,99780.81
2022-12-25T07:36:27.177Z,99778.97
2022-12-25T07:37:28.795Z,99783.31
2022-12-25T07:38:30.366Z,99781.72
2022-12-25T07:39:32.448Z,99784.69
2022-12-25T07:40:34.030Z,99792.78
2022-12-25T07:41:35.977Z,99793.00
2022-12-25T07:42:49.417Z,99794.06
2022-12-25T07:43:53.414Z,99793.28
2022-12-25T07:44:54.989Z,99791.47
2022-12-25T07:45:59.457Z,99790.53
2022-12-25T07:47:01.840Z,99790.69
2022-12-25T07:48:05.864Z,99790.75
2022-12-25T07:49:10.047Z,99795.09
2022-12-25T07:50:12.164Z,99791.03
2022-12-25T07:51:15.382Z,99792.59
2022-12-25T07:52:16.918Z,99804.13
2022-12-25T07:53:18.485Z,99790.19
2022-12-25T07:54:20.379Z,99801.56
2022-12-25T07:55:22.289Z,99808.41
2022-12-25T07:56:24.237Z,99809.16
2022-12-25T07:57:25.809Z,99810.59
2022-12-25T07:58:29.212Z,99817.38
2022-12-25T07:59:31.468Z,99816.53
2022-12-25T08:00:33.072Z,99809.56
2022-12-25T08:01:34.880Z,99808.75
2022-12-25T08:02:37.059Z,99801.78
2022-12-25T08:03:40.499Z,99796.44
2022-12-25T08:04:42.195Z,99805.94
2022-12-25T08:05:43.731Z,99805.06
2022-12-25T08:06:45.412Z,99799.72
2022-12-25T08:07:49.931Z,99798.47
2022-12-25T08:08:54.669Z,99796.25
2022-12-25T08:09:57.372Z,99797.78
2022-12-25T08:10:59.384Z,99791.75
2022-12-25T08:12:01.176Z,99795.94
2022-12-25T08:13:03.125Z,99788.56
2022-12-25T08:14:07.426Z,99787.53
2022-12-25T08:15:10.273Z,99788.13
2022-12-25T08:16:12.408Z,99787.09
2022-12-25T08:17:14.436Z,99784.44
2022-12-25T08:18:16.212Z,99786.81
2022-12-25T08:19:18.247Z,99786.50
2022-12-25T08:20:20.181Z,99794.06
2022-12-25T08:21:22.568Z,99789.63
2022-12-25T08:22:24.476Z,99797.31
2022-12-25T08:23:25.992Z,99790.31
2022-12-25T08:24:27.875Z,99792.69
2022-12-25T08:25:29.575Z,99802.25
2022-12-25T08:26:31.876Z,99800.75
2022-12-25T08:27:34.874Z,99800.56
2022-12-25T08:28:37.036Z,99796.28
2022-12-25T08:29:38.962Z,99794.53
2022-12-25T08:30:41.875Z,99791.78
2022-12-25T08:31:46.455Z,99797.75
2022-12-25T08:32:49.247Z,99795.91
2022-12-25T08:33:53.778Z,99797.75
2022-12-25T08:34:55.302Z,99798.84
2022-12-25T08:36:02.818Z,99804.25
2022-12-25T08:37:05.075Z,99805.03
2022-12-25T08:38:06.910Z,99815.44
2022-12-25T08:39:09.461Z,99819.81
2022-12-25T08:40:12.351Z,99815.66
2022-12-25T08:41:15.085Z,99815.59
2022-12-25T08:42:16.818Z,99818.75
2022-12-25T08:43:19.655Z,99817.44
2022-12-25T08:44:21.429Z,99814.75
2022-12-25T08:45:23.728Z,99823.56
2022-12-25T08:46:25.540Z,99823.28
2022-12-25T08:47:27.844Z,99816.91
2022-12-25T08:48:30.063Z,99821.19
2022-12-25T08:49:31.966Z,99819.50
2022-12-25T08:50:33.943Z,99818.59
2022-12-25T08:51:36.034Z,99821.09
2022-12-25T08:52:38.694Z,99820.78
2022-12-25T08:53:45.093Z,99822.09
2022-12-25T08:54:47.023Z,99816.47
2022-12-25T08:55:49.203Z,99815.38
2022-12-25T08:56:54.089Z,99820.13
2022-12-25T08:57:58.253Z,99815.28
2022-12-25T08:58:59.847Z,99815.81
2022-12-25T09:00:01.949Z,99814.53
2022-12-25T09:01:04.996Z,99818.56
2022-12-25T09:02:07.044Z,99809.41
2022-12-25T09:03:09.409Z,99815.31
2022-12-25T09:04:12.162Z,99814.88
2022-12-25T09:05:14.981Z,99810.03
2022-12-25T09:06:17.380Z,99809.19
2022-12-25T09:07:18.944Z,99813.59
2022-12-25T09:08:22.044Z,99811.81
2022-12-25T09:09:27.803Z,99810.69
2022-12-25T09:10:29.926Z,99806.19
2022-12-25T09:11:31.583Z,99812.56
2022-12-25T09:12:33.592Z,99812.38
2022-12-25T09:13:35.485Z,99810.72
2022-12-25T09:14:37.185Z,99812.44
2022-12-25T09:15:40.507Z,99815.84
2022-12-25T09:16:42.417Z,99817.06
2022-12-25T09:17:44.615Z,99817.19
2022-12-25T09:18:46.693Z,99828.22
2022-12-25T09:19:48.311Z,99820.22
2022-12-25T09:21:04.854Z,99822.25
2022-12-25T09:22:06.480Z,99821.78
2022-12-25T09:23:13.498Z,99828.06
2022-12-25T09:24:16.340Z,99828.94
2022-12-25T09:25:18.028Z,99838.78
2022-12-25T09:26:20.531Z,99836.88
2022-12-25T09:27:22.135Z,99837.47
2022-12-25T09:28:24.746Z,99839.03
2022-12-25T09:29:26.277Z,99828.75
2022-12-25T09:30:29.077Z,99839.91
2022-12-25T09:31:30.963Z,99833.22
2022-12-25T09:32:32.998Z,99835.94
2022-12-25T09:33:35.507Z,99838.28
2022-12-25T09:34:37.213Z,99824.25
2022-12-25T09:35:39.484Z,99836.88
2022-12-25T09:36:41.346Z,99832.38
2022-12-25T09:37:43.209Z,99833.78
2022-12-25T09:38:44.716Z,99835.41
2022-12-25T09:39:46.777Z,99835.34
2022-12-25T09:40:49.545Z,99839.44
2022-12-25T09:41:59.054Z,99833.78
2022-12-25T09:43:03.568Z,99833.13
2022-12-25T09:44:15.202Z,99826.13
2022-12-25T09:45:38.942Z,99824.00
2022-12-25T09:46:50.778Z,99822.06
2022-12-25T09:47:56.422Z,99831.75
2022-12-25T09:49:20.315Z,99835.06
2022-12-25T09:50:49.242Z,99836.94
2022-12-25T09:51:59.686Z,99829.00
2022-12-25T09:53:07.514Z,99832.81
2022-12-25T09:54:30.261Z,99833.13
2022-12-25T09:55:36.437Z,99830.47
2022-12-25T09:56:38.947Z,99822.78
2022-12-25T09:57:41.689Z,99829.97
2022-12-25T09:58:44.940Z,99825.31
2022-12-25T09:59:46.738Z,99824.34
2022-12-25T10:00:57.441Z,99819.19
2022-12-25T10:02:05.134Z,99827.53
2022-12-25T10:03:23.897Z,99823.38
2022-12-25T10:04:40.830Z,99831.53
2022-12-25T10:06:08.483Z,99830.00
2022-12-25T10:07:27.717Z,99828.94
2022-12-25T10:09:10.496Z,99831.78
2022-12-25T10:10:23.680Z,99834.97
2022-12-25T10:11:49.331Z,99831.25
2022-12-25T10:13:19.337Z,99827.13
2022-12-25T10:14:40.564Z,99832.63
2022-12-25T10:16:24.648Z,99832.03
2022-12-25T10:17:43.994Z,99832.81
2022-12-25T10:19:00.754Z,99837.91
2022-12-25T10:20:17.663Z,99838.13
2022-12-25T10:21:20.581Z,99832.47
2022-12-25T10:22:40.568Z,99831.31
2022-12-25T10:23:50.576Z,99830.00
2022-12-25T10:24:56.693Z,99830.41
2022-12-25T10:25:59.384Z,99829.25
2022-12-25T10:27:05.219Z,99827.69
2022-12-25T10:28:14.272Z,99822.34
2022-12-25T10:29:18.226Z,99825.69
2022-12-25T10:30:23.192Z,99825.16
2022-12-25T10:31:28.832Z,99817.06
2022-12-25T10:32:30.574Z,99821.88
2022-12-25T10:33:32.168Z,99811.59
2022-12-25T10:34:34.956Z,99805.53
2022-12-25T10:35:38.540Z,99808.34
2022-12-25T10:36:41.857Z,99804.56
2022-12-25T10:37:46.357Z,99805.94
2022-12-25T10:38:48.873Z,99803.09
2022-12-25T10:39:50.412Z,99803.75
2022-12-25T10:40:57.887Z,99798.81
2022-12-25T10:42:09.004Z,99794.41
2022-12-25T10:43:25.551Z,99792.53
2022-12-25T10:44:27.910Z,99797.03
2022-12-25T10:45:29.683Z,99796.09
2022-12-25T10:46:31.533Z,99794.28
2022-12-25T10:47:36.148Z,99796.81
2022-12-25T10:48:42.375Z,99803.09
2022-12-25T10:49:44.232Z,99803.53
2022-12-25T10:50:46.204Z,99801.81
2022-12-25T10:51:48.516Z,99799.84
2022-12-25T10:53:03.927Z,99796.81
2022-12-25T10:54:22.415Z,99793.88
2022-12-25T10:55:28.853Z,99782.25
2022-12-25T10:56:31.481Z,99786.25
2022-12-25T10:57:45.497Z,99785.28
2022-12-25T10:58:47.200Z,99782.34
2022-12-25T10:59:51.718Z,99784.03
2022-12-25T11:00:57.566Z,99785.81
2022-12-25T11:02:15.362Z,99783.84
2022-12-25T11:03:23.497Z,99788.00
2022-12-25T11:04:27.872Z,99784.97
2022-12-25T11:05:34.247Z,99786.44
2022-12-25T11:06:35.987Z,99785.28
2022-12-25T11:07:44.915Z,99776.47
2022-12-25T11:08:54.396Z,99783.72
2022-12-25T11:10:05.112Z,99780.88
2022-12-25T11:11:19.891Z,99779.09
2022-12-25T11:12:32.717Z,99787.69
2022-12-25T11:13:39.921Z,99776.75
2022-12-25T11:14:55.717Z,99778.25
2022-12-25T11:16:12.883Z,99775.47
2022-12-25T11:17:19.119Z,99771.81
2022-12-25T11:18:30.224Z,99771.72
2022-12-25T11:19:32.985Z,99767.41
2022-12-25T11:20:38.408Z,99768.00
2022-12-25T11:21:52.003Z,99757.44
2022-12-25T11:22:54.713Z,99759.94
2022-12-25T11:24:02.820Z,99758.78
2022-12-25T11:25:22.088Z,99762.66
2022-12-25T11:26:24.345Z,99757.66
2022-12-25T11:27:30.665Z,99757.22
2022-12-25T11:28:35.299Z,99747.31
2022-12-25T11:29:50.659Z,99743.66
2022-12-25T11:31:00.578Z,99746.31
2022-12-25T11:32:05.301Z,99743.97
2022-12-25T11:33:12.171Z,99736.25
2022-12-25T11:34:28.272Z,99743.22
2022-12-25T11:35:32.784Z,99746.13
2022-12-25T11:36:49.928Z,99744.34
2022-12-25T11:37:53.085Z,99743.56
2022-12-25T11:38:55.311Z,99745.47
2022-12-25T11:39:57.496Z,99750.03
2022-12-25T11:41:03.483Z,99744.16
2022-12-25T11:42:20.694Z,99742.25
2022-12-25T11:43:28.872Z,99739.00
2022-12-25T11:44:47.100Z,99733.50
2022-12-25T11:45:57.217Z,99727.16
2022-12-25T11:47:07.729Z,99738.00
2022-12-25T11:48:24.150Z,99723.09
2022-12-25T11:49:25.927Z,99721.50
2022-12-25T11:50:35.678Z,99725.44
2022-12-25T11:51:40.682Z,99719.13
2022-12-25T11:52:46.922Z,99725.09
2022-12-25T11:53:52.990Z,99723.28
2022-12-25T11:55:17.340Z,99722.81
2022-12-25T11:56:23.700Z,99723.53
2022-12-25T11:57:29.856Z,99718.28
2022-12-25T11:58:44.240Z,99717.78
2022-12-25T12:00:16.283Z,99717.31
2022-12-25T12:01:45.823Z,99713.88
2022-12-25T12:02:57.586Z,99722.81
2022-12-25T12:04:03.265Z,99728.69
2022-12-25T12:05:16.313Z,99728.31
2022-12-25T12:06:27.026Z,99729.63
2022-12-25T12:07:32.177Z,99734.88
2022-12-25T12:08:35.571Z,99722.72
2022-12-25T12:09:55.309Z,99731.41
2022-12-25T12:11:33.717Z,99723.78
2022-12-25T12:12:44.915Z,99724.81
2022-12-25T12:13:59.374Z,99729.97
2022-12-25T12:15:15.359Z,99720.28
2022-12-25T12:16:17.711Z,99717.56
2022-12-25T12:17:19.966Z,99717.47
2022-12-25T12:18:23.077Z,99715.16
2022-12-25T12:19:30.251Z,99712.88
2022-12-25T12:20:34.829Z,99707.72
2022-12-25T12:21:37.696Z,99703.44
2022-12-25T12:22:40.015Z,99700.00
2022-12-25T12:23:47.739Z,99695.66
2022-12-25T12:25:07.848Z,99700.19
2022-12-25T12:26:22.259Z,99697.81
2022-12-25T12:27:31.766Z,99698.66
2022-12-25T12:28:45.128Z,99700.66
2022-12-25T12:29:52.440Z,99699.66
2022-12-25T12:31:06.356Z,99700.88
2022-12-25T12:32:35.382Z,99691.50
2022-12-25T12:33:42.678Z,99693.31
2022-12-25T12:34:48.578Z,99691.66
2022-12-25T12:35:50.752Z,99692.38
2022-12-25T12:37:00.702Z,99696.16
2022-12-25T12:38:15.385Z,99697.63
2022-12-25T12:39:32.041Z,99708.47
2022-12-25T12:40:44.201Z,99704.50
2022-12-25T12:41:48.636Z,99717.13
2022-12-25T12:42:50.571Z,99709.13
2022-12-25T12:43:59.588Z,99720.25
2022-12-25T12:45:14.450Z,99714.28
2022-12-25T12:46:30.655Z,99716.91
2022-12-25T12:47:43.471Z,99714.50
2022-12-25T12:48:49.051Z,99717.13
2022-12-25T12:49:57.775Z,99718.66
2022-12-25T12:51:04.843Z,99724.16